sensor_id;sensor_type;location;lat;lon;timestamp;pressure;altitude;pressure_sealevel;temperature;humidity
64253;BME280;50592;52.958;-7.470;2024-03-08T03:19:01;99799.63;;;5.87;100.00
64253;BME280;50592;52.958;-7.470;2024-03-08T03:21:41;99801.59;;;5.74;100.00
64253;BME280;50592;52.958;-7.470;2024-03-08T04:25:58;99714.91;;;5.65;100.00
64253;BME280;50592;52.958;-7.470;2024-03-08T04:29:13;99707.66;;;5.57;100.00
64253;BME280;50592;52.958;-7.470;2024-03-08T04:44:43;99703.72;;;5.63;100.00
64253;BME280;50592;52.958;-7.470;2024-03-08T04:50:47;99672.47;;;5.50;100.00
64253;BME280;50592;52.958;-7.470;2024-03-08T04:53:20;99673.84;;;5.44;100.00
64253;BME280;50592;52.958;-7.470;2024-03-08T04:55:55;99670.50;;;5.42;100.00
64253;BME280;50592;52.958;-7.470;2024-03-08T04:58:26;99670.09;;;5.16;100.00
64253;BME280;50592;52.958;-7.470;2024-03-08T05:01:23;99666.16;;;5.10;100.00
64253;BME280;50592;52.958;-7.470;2024-03-08T05:04:02;99665.22;;;5.11;100.00
64253;BME280;50592;52.958;-7.470;2024-03-08T05:06:40;99660.56;;;4.93;100.00
64253;BME280;50592;52.958;-7.470;2024-03-08T05:09:33;99659.78;;;5.03;100.00
64253;BME280;50592;52.958;-7.470;2024-03-08T05:12:08;99648.47;;;4.81;100.00
64253;BME280;50592;52.958;-7.470;2024-03-08T05:14:45;99658.25;;;4.79;100.00
64253;BME280;50592;52.958;-7.470;2024-03-08T05:17:27;99662.91;;;4.75;100.00
64253;BME280;50592;52.958;-7.470;2024-03-08T05:20:02;99658.28;;;4.67;100.00
64253;BME280;50592;52.958;-7.470;2024-03-08T05:22:46;99658.44;;;4.54;100.00
64253;BME280;50592;52.958;-7.470;2024-03-08T05:25:15;99660.69;;;4.59;100.00
64253;BME280;50592;52.958;-7.470;2024-03-08T05:27:56;99651.91;;;4.60;100.00
64253;BME280;50592;52.958;-7.470;2024-03-08T05:33:19;99657.50;;;4.55;100.00
64253;BME280;50592;52.958;-7.470;2024-03-08T05:36:05;99658.44;;;4.54;100.00
64253;BME280;50592;52.958;-7.470;2024-03-08T05:38:42;99646.38;;;4.42;100.00
64253;BME280;50592;52.958;-7.470;2024-03-08T05:41:32;99652.28;;;4.55;100.00
64253;BME280;50592;52.958;-7.470;2024-03-08T05:43:58;99662.44;;;4.37;100.00
64253;BME280;50592;52.958;-7.470;2024-03-08T05:46:24;99651.25;;;4.35;100.00
64253;BME280;50592;52.958;-7.470;2024-03-08T05:48:51;99654.25;;;4.30;100.00
64253;BME280;50592;52.958;-7.470;2024-03-08T05:51:32;99640.22;;;4.31;100.00
64253;BME280;50592;52.958;-7.470;2024-03-08T05:54:07;99646.38;;;4.30;100.00
64253;BME280;50592;52.958;-7.470;2024-03-08T05:56:40;99647.22;;;4.31;100.00
64253;BME280;50592;52.958;-7.470;2024-03-08T05:59:49;99635.38;;;4.27;100.00
64253;BME280;50592;52.958;-7.470;2024-03-08T06:02:50;99656.31;;;4.15;100.00
64253;BME280;50592;52.958;-7.470;2024-03-08T06:05:20;99650.38;;;4.13;100.00
64253;BME280;50592;52.958;-7.470;2024-03-08T06:10:36;99643.69;;;4.20;100.00
64253;BME280;50592;52.958;-7.470;2024-03-08T06:13:03;99637.88;;;4.17;100.00
64253;BME280;50592;52.958;-7.470;2024-03-08T06:15:32;99624.19;;;4.25;100.00
64253;BME280;50592;52.958;-7.470;2024-03-08T06:18:01;99632.63;;;4.28;100.00
64253;BME280;50592;52.958;-7.470;2024-03-08T06:20:38;99622.03;;;4.30;100.00
64253;BME280;50592;52.958;-7.470;2024-03-08T06:23:12;99630.25;;;4.25;100.00
64253;BME280;50592;52.958;-7.470;2024-03-08T06:25:38;99625.59;;;4.29;100.00
64253;BME280;50592;52.958;-7.470;2024-03-08T06:28:15;99615.03;;;4.19;100.00
64253;BME280;50592;52.958;-7.470;2024-03-08T06:30:45;99634.56;;;4.15;100.00
64253;BME280;50592;52.958;-7.470;2024-03-08T06:33:20;99625.28;;;4.22;100.00
64253;BME280;50592;52.958;-7.470;2024-03-08T06:35:46;99614.22;;;4.18;100.00
64253;BME280;50592;52.958;-7.470;2024-03-08T06:38:12;99620.38;;;4.17;100.00
64253;BME280;50592;52.958;-7.470;2024-03-08T06:40:38;99624.69;;;4.18;100.00
64253;BME280;50592;52.958;-7.470;2024-03-08T06:43:11;99606.53;;;4.05;100.00
64253;BME280;50592;52.958;-7.470;2024-03-08T06:45:47;99612.09;;;4.12;100.00
64253;BME280;50592;52.958;-7.470;2024-03-08T06:48:32;99609.84;;;4.07;100.00
64253;BME280;50592;52.958;-7.470;2024-03-08T06:50:58;99605.03;;;4.24;100.00
64253;BME280;50592;52.958;-7.470;2024-03-08T06:53:36;99605.41;;;4.19;100.00
64253;BME280;50592;52.958;-7.470;2024-03-08T06:56:06;99593.53;;;4.15;100.00
64253;BME280;50592;52.958;-7.470;2024-03-08T06:58:40;99590.69;;;4.07;100.00
64253;BME280;50592;52.958;-7.470;2024-03-08T07:01:14;99596.97;;;4.16;100.00
64253;BME280;50592;52.958;-7.470;2024-03-08T07:04:06;99585.81;;;4.14;100.00
64253;BME280;50592;52.958;-7.470;2024-03-08T07:07:15;99578.13;;;4.01;100.00
64253;BME280;50592;52.958;-7.470;2024-03-08T07:10:04;99577.38;;;4.10;100.00
64253;BME280;50592;52.958;-7.470;2024-03-08T07:13:16;99590.59;;;4.08;100.00
64253;BME280;50592;52.958;-7.470;2024-03-08T07:15:51;99583.88;;;4.16;100.00
64253;BME280;50592;52.958;-7.470;2024-03-08T07:18:18;99581.41;;;4.14;100.00
64253;BME280;50592;52.958;-7.470;2024-03-08T07:20:53;99585.06;;;4.23;100.00
64253;BME280;50592;52.958;-7.470;2024-03-08T07:24:05;99599.69;;;4.26;100.00
64253;BME280;50592;52.958;-7.470;2024-03-08T07:26:50;99597.19;;;4.24;100.00
64253;BME280;50592;52.958;-7.470;2024-03-08T07:29:17;99589.44;;;4.34;100.00
64253;BME280;50592;52.958;-7.470;2024-03-08T07:34:58;99597.88;;;4.38;100.00
64253;BME280;50592;52.958;-7.470;2024-03-08T07:37:44;99600.22;;;4.41;100.00
64253;BME280;50592;52.958;-7.470;2024-03-08T07:44:53;99600.88;;;4.54;100.00
64253;BME280;50592;52.958;-7.470;2024-03-08T07:48:12;99599.22;;;4.53;100.00
64253;BME280;50592;52.958;-7.470;2024-03-08T07:51:41;99604.59;;;4.73;100.00
64253;BME280;50592;52.958;-7.470;2024-03-08T07:54:57;99601.53;;;4.68;100.00
64253;BME280;50592;52.958;-7.470;2024-03-08T08:02:28;99596.31;;;4.68;100.00
64253;BME280;50592;52.958;-7.470;2024-03-08T08:06:31;99589.00;;;4.71;100.00
64253;BME280;50592;52.958;-7.470;2024-03-08T08:09:46;99603.38;;;4.77;100.00
64253;BME280;50592;52.958;-7.470;2024-03-08T08:12:38;99591.63;;;4.71;100.00
64253;BME280;50592;52.958;-7.470;2024-03-08T08:15:17;99598.41;;;4.74;100.00
64253;BME280;50592;52.958;-7.470;2024-03-08T08:18:15;99600.25;;;4.83;100.00
64253;BME280;50592;52.958;-7.470;2024-03-08T08:21:37;99597.00;;;4.91;100.00
64253;BME280;50592;52.958;-7.470;2024-03-08T08:24:22;99591.75;;;4.91;100.00
64253;BME280;50592;52.958;-7.470;2024-03-08T08:27:14;99591.19;;;4.88;100.00
64253;BME280;50592;52.958;-7.470;2024-03-08T08:33:32;99582.13;;;4.70;100.00
64253;BME280;50592;52.958;-7.470;2024-03-08T08:39:29;99573.94;;;4.64;100.00
64253;BME280;50592;52.958;-7.470;2024-03-08T09:00:22;99563.28;;;4.98;100.00
64253;BME280;50592;52.958;-7.470;2024-03-08T09:03:36;99555.69;;;4.95;100.00
64253;BME280;50592;52.958;-7.470;2024-03-08T09:07:08;99555.69;;;5.05;100.00
64253;BME280;50592;52.958;-7.470;2024-03-08T09:10:24;99548.94;;;5.02;100.00
64253;BME280;50592;52.958;-7.470;2024-03-08T09:12:53;99547.84;;;5.05;100.00
64253;BME280;50592;52.958;-7.470;2024-03-08T09:15:49;99537.41;;;5.15;100.00
64253;BME280;50592;52.958;-7.470;2024-03-08T09:18:22;99535.53;;;5.27;100.00
64253;BME280;50592;52.958;-7.470;2024-03-08T09:24:37;99524.09;;;5.28;100.00
64253;BME280;50592;52.958;-7.470;2024-03-08T09:27:33;99536.56;;;5.45;100.00
64253;BME280;50592;52.958;-7.470;2024-03-08T09:29:59;99537.81;;;5.41;100.00
64253;BME280;50592;52.958;-7.470;2024-03-08T09:32:25;99525.50;;;5.42;100.00
64253;BME280;50592;52.958;-7.470;2024-03-08T09:34:52;99534.78;;;5.46;100.00
64253;BME280;50592;52.958;-7.470;2024-03-08T09:37:49;99523.19;;;5.49;100.00
64253;BME280;50592;52.958;-7.470;2024-03-08T09:40:19;99522.63;;;5.45;100.00
64253;BME280;50592;52.958;-7.470;2024-03-08T09:46:50;99509.13;;;5.59;100.00
64253;BME280;50592;52.958;-7.470;2024-03-08T09:49:21;99501.81;;;5.53;100.00
64253;BME280;50592;52.958;-7.470;2024-03-08T09:51:51;99509.50;;;5.45;100.00
64253;BME280;50592;52.958;-7.470;2024-03-08T09:54:17;99501.13;;;5.51;100.00
64253;BME280;50592;52.958;-7.470;2024-03-08T09:56:46;99517.41;;;5.55;100.00
64253;BME280;50592;52.958;-7.470;2024-03-08T09:59:15;99507.34;;;5.50;100.00
64253;BME280;50592;52.958;-7.470;2024-03-08T10:01:59;99501.56;;;5.66;100.00
64253;BME280;50592;52.958;-7.470;2024-03-08T10:07:41;99486.41;;;5.70;100.00
64253;BME280;50592;52.958;-7.470;2024-03-08T10:10:07;99494.13;;;5.62;100.00
64253;BME280;50592;52.958;-7.470;2024-03-08T10:13:03;99490.13;;;5.77;100.00
64253;BME280;50592;52.958;-7.470;2024-03-08T10:18:52;99482.94;;;5.69;100.00
64253;BME280;50592;52.958;-7.470;2024-03-08T10:21:20;99486.00;;;5.75;100.00
64253;BME280;50592;52.958;-7.470;2024-03-08T10:23:48;99486.66;;;5.77;100.00
64253;BME280;50592;52.958;-7.470;2024-03-08T10:26:19;99478.94;;;5.65;100.00
64253;BME280;50592;52.958;-7.470;2024-03-08T10:29:06;99458.25;;;5.82;100.00
64253;BME280;50592;52.958;-7.470;2024-03-08T10:32:22;99453.25;;;5.69;100.00
64253;BME280;50592;52.958;-7.470;2024-03-08T10:34:55;99459.47;;;5.88;100.00
64253;BME280;50592;52.958;-7.470;2024-03-08T10:37:38;99461.44;;;5.95;100.00
64253;BME280;50592;52.958;-7.470;2024-03-08T10:40:24;99464.59;;;5.99;100.00
64253;BME280;50592;52.958;-7.470;2024-03-08T10:45:50;99445.81;;;6.04;100.00
64253;BME280;50592;52.958;-7.470;2024-03-08T10:48:30;99449.56;;;6.11;100.00
64253;BME280;50592;52.958;-7.470;2024-03-08T10:51:11;99436.97;;;6.15;100.00
64253;BME280;50592;52.958;-7.470;2024-03-08T10:53:54;99448.03;;;6.18;100.00
64253;BME280;50592;52.958;-7.470;2024-03-08T10:56:49;99433.91;;;6.29;100.00
64253;BME280;50592;52.958;-7.470;2024-03-08T11:00:30;99442.75;;;6.48;100.00
64253;BME280;50592;52.958;-7.470;2024-03-08T11:03:48;99436.31;;;6.23;100.00
64253;BME280;50592;52.958;-7.470;2024-03-08T11:06:50;99430.28;;;6.50;100.00
64253;BME280;50592;52.958;-7.470;2024-03-08T11:09:40;99435.81;;;6.47;100.00
64253;BME280;50592;52.958;-7.470;2024-03-08T11:15:25;99409.69;;;6.83;100.00
64253;BME280;50592;52.958;-7.470;2024-03-08T11:18:05;99420.81;;;6.67;100.00
64253;BME280;50592;52.958;-7.470;2024-03-08T11:20:41;99426.75;;;6.69;100.00
64253;BME280;50592;52.958;-7.470;2024-03-08T11:23:10;99403.94;;;6.80;100.00
64253;BME280;50592;52.958;-7.470;2024-03-08T11:25:44;99406.84;;;6.77;100.00
64253;BME280;50592;52.958;-7.470;2024-03-08T11:31:45;99393.94;;;6.83;100.00
64253;BME280;50592;52.958;-7.470;2024-03-08T11:34:19;99398.66;;;6.80;100.00
64253;BME280;50592;52.958;-7.470;2024-03-08T11:36:56;99404.09;;;6.97;100.00
64253;BME280;50592;52.958;-7.470;2024-03-08T11:39:48;99396.91;;;6.99;100.00
64253;BME280;50592;52.958;-7.470;2024-03-08T11:42:47;99395.81;;;6.91;100.00
64253;BME280;50592;52.958;-7.470;2024-03-08T11:45:15;99390.50;;;6.83;100.00
64253;BME280;50592;52.958;-7.470;2024-03-08T11:47:45;99392.53;;;6.89;100.00
64253;BME280;50592;52.958;-7.470;2024-03-08T11:50:15;99387.06;;;7.01;100.00
64253;BME280;50592;52.958;-7.470;2024-03-08T11:53:05;99374.16;;;7.07;100.00
64253;BME280;50592;52.958;-7.470;2024-03-08T11:55:51;99387.00;;;7.11;100.00
64253;BME280;50592;52.958;-7.470;2024-03-08T11:58:23;99362.69;;;7.27;100.00
64253;BME280;50592;52.958;-7.470;2024-03-08T12:01:10;99377.03;;;7.14;100.00
64253;BME280;50592;52.958;-7.470;2024-03-08T12:03:50;99370.72;;;7.25;100.00
64253;BME280;50592;52.958;-7.470;2024-03-08T12:06:39;99377.47;;;7.10;100.00
64253;BME280;50592;52.958;-7.470;2024-03-08T12:09:11;99355.50;;;7.29;100.00
64253;BME280;50592;52.958;-7.470;2024-03-08T12:11:58;99345.88;;;7.19;100.00
64253;BME280;50592;52.958;-7.470;2024-03-08T12:14:34;99335.44;;;7.28;100.00
64253;BME280;50592;52.958;-7.470;2024-03-08T12:17:24;99354.91;;;7.35;100.00
64253;BME280;50592;52.958;-7.470;2024-03-08T12:19:50;99349.16;;;7.22;100.00
64253;BME280;50592;52.958;-7.470;2024-03-08T12:22:25;99332.50;;;7.13;100.00
64253;BME280;50592;52.958;-7.470;2024-03-08T12:25:04;99332.97;;;7.08;100.00
64253;BME280;50592;52.958;-7.470;2024-03-08T12:27:40;99337.47;;;7.16;100.00
64253;BME280;50592;52.958;-7.470;2024-03-08T12:30:23;99338.75;;;7.30;100.00
64253;BME280;50592;52.958;-7.470;2024-03-08T12:33:00;99334.00;;;7.52;100.00
64253;BME280;50592;52.958;-7.470;2024-03-08T12:35:30;99325.06;;;7.63;100.00
64253;BME280;50592;52.958;-7.470;2024-03-08T12:38:06;99319.81;;;7.63;100.00
64253;BME280;50592;52.958;-7.470;2024-03-08T12:41:08;99323.28;;;7.45;100.00
64253;BME280;50592;52.958;-7.470;2024-03-08T12:43:43;99313.63;;;6.99;100.00
64253;BME280;50592;52.958;-7.470;2024-03-08T12:46:19;99311.47;;;6.94;100.00
64253;BME280;50592;52.958;-7.470;2024-03-08T12:49:12;99302.50;;;6.69;100.00
64253;BME280;50592;52.958;-7.470;2024-03-08T12:51:38;99297.94;;;6.71;100.00
64253;BME280;50592;52.958;-7.470;2024-03-08T12:54:24;99304.19;;;6.88;100.00
64253;BME280;50592;52.958;-7.470;2024-03-08T12:57:16;99301.25;;;6.73;100.00
64253;BME280;50592;52.958;-7.470;2024-03-08T13:03:40;99292.94;;;6.96;100.00
64253;BME280;50592;52.958;-7.470;2024-03-08T13:07:01;99285.09;;;6.68;100.00
64253;BME280;50592;52.958;-7.470;2024-03-08T13:09:32;99282.06;;;6.91;100.00
64253;BME280;50592;52.958;-7.470;2024-03-08T13:12:09;99265.91;;;6.86;100.00
64253;BME280;50592;52.958;-7.470;2024-03-08T13:14:40;99271.91;;;7.14;100.00
64253;BME280;50592;52.958;-7.470;2024-03-08T13:17:18;99267.09;;;6.91;100.00
64253;BME280;50592;52.958;-7.470;2024-03-08T13:19:44;99266.66;;;6.78;100.00
64253;BME280;50592;52.958;-7.470;2024-03-08T13:22:16;99252.19;;;6.92;100.00
64253;BME280;50592;52.958;-7.470;2024-03-08T13:28:20;99254.25;;;7.43;100.00
64253;BME280;50592;52.958;-7.470;2024-03-08T13:31:28;99250.72;;;7.34;100.00
64253;BME280;50592;52.958;-7.470;2024-03-08T13:33:54;99275.19;;;7.35;100.00
64253;BME280;50592;52.958;-7.470;2024-03-08T13:36:26;99258.56;;;7.26;100.00
64253;BME280;50592;52.958;-7.470;2024-03-08T13:39:04;99234.38;;;7.49;100.00
64253;BME280;50592;52.958;-7.470;2024-03-08T13:41:47;99247.28;;;7.60;100.00
64253;BME280;50592;52.958;-7.470;2024-03-08T13:44:17;99263.44;;;7.65;100.00
64253;BME280;50592;52.958;-7.470;2024-03-08T13:46:43;99254.63;;;7.56;100.00
64253;BME280;50592;52.958;-7.470;2024-03-08T13:49:11;99254.38;;;7.60;100.00
64253;BME280;50592;52.958;-7.470;2024-03-08T13:51:47;99219.88;;;7.63;100.00
64253;BME280;50592;52.958;-7.470;2024-03-08T13:54:14;99239.78;;;7.47;100.00
64253;BME280;50592;52.958;-7.470;2024-03-08T13:56:41;99239.00;;;7.47;100.00
64253;BME280;50592;52.958;-7.470;2024-03-08T13:59:09;99242.16;;;7.32;100.00
64253;BME280;50592;52.958;-7.470;2024-03-08T14:05:10;99256.75;;;6.90;100.00
64253;BME280;50592;52.958;-7.470;2024-03-08T14:07:39;99243.69;;;6.98;100.00
64253;BME280;50592;52.958;-7.470;2024-03-08T14:10:07;99239.66;;;6.86;100.00
64253;BME280;50592;52.958;-7.470;2024-03-08T14:12:35;99234.47;;;6.94;100.00
64253;BME280;50592;52.958;-7.470;2024-03-08T14:15:04;99244.06;;;6.85;100.00
64253;BME280;50592;52.958;-7.470;2024-03-08T14:17:33;99223.38;;;7.00;100.00
64253;BME280;50592;52.958;-7.470;2024-03-08T14:19:58;99221.50;;;6.92;100.00
64253;BME280;50592;52.958;-7.470;2024-03-08T14:22:24;99210.31;;;6.90;100.00
64253;BME280;50592;52.958;-7.470;2024-03-08T14:24:50;99214.06;;;6.88;100.00
64253;BME280;50592;52.958;-7.470;2024-03-08T14:27:17;99196.94;;;6.83;100.00
64253;BME280;50592;52.958;-7.470;2024-03-08T14:41:42;99184.88;;;6.91;100.00
64253;BME280;50592;52.958;-7.470;2024-03-08T14:54:00;99156.28;;;7.67;100.00
64253;BME280;50592;52.958;-7.470;2024-03-08T15:01:30;99150.78;;;7.26;100.00
64253;BME280;50592;52.958;-7.470;2024-03-08T15:08:29;99123.78;;;7.50;100.00
64253;BME280;50592;52.958;-7.470;2024-03-08T15:23:49;99089.72;;;7.32;100.00
64253;BME280;50592;52.958;-7.470;2024-03-08T15:30:44;99097.59;;;7.32;100.00
64253;BME280;50592;52.958;-7.470;2024-03-08T15:38:10;99067.69;;;7.33;100.00
64253;BME280;50592;52.958;-7.470;2024-03-08T15:49:23;99083.66;;;7.05;100.00
64253;BME280;50592;52.958;-7.470;2024-03-08T15:57:25;99070.38;;;6.80;100.00
64253;BME280;50592;52.958;-7.470;2024-03-08T16:00:38;99066.66;;;6.91;100.00
64253;BME280;50592;52.958;-7.470;2024-03-08T16:16:16;99052.00;;;6.62;100.00
64253;BME280;50592;52.958;-7.470;2024-03-08T17:06:38;99012.72;;;6.52;100.00
64253;BME280;50592;52.958;-7.470;2024-03-08T17:09:04;99018.69;;;6.36;100.00
64253;BME280;50592;52.958;-7.470;2024-03-08T17:11:39;99020.38;;;6.45;100.00
64253;BME280;50592;52.958;-7.470;2024-03-08T17:14:05;99015.50;;;6.50;100.00
64253;BME280;50592;52.958;-7.470;2024-03-08T17:16:34;98999.44;;;6.53;100.00
64253;BME280;50592;52.958;-7.470;2024-03-08T17:19:05;99005.69;;;6.52;100.00
64253;BME280;50592;52.958;-7.470;2024-03-08T17:21:34;99012.09;;;6.58;100.00
64253;BME280;50592;52.958;-7.470;2024-03-08T17:44:53;99016.34;;;6.51;100.00
64253;BME280;50592;52.958;-7.470;2024-03-08T18:01:12;99025.59;;;6.37;100.00
64253;BME280;50592;52.958;-7.470;2024-03-08T18:03:41;99022.81;;;6.38;100.00
64253;BME280;50592;52.958;-7.470;2024-03-08T18:06:10;99017.66;;;6.28;100.00
64253;BME280;50592;52.958;-7.470;2024-03-08T18:08:36;99031.91;;;6.26;100.00
64253;BME280;50592;52.958;-7.470;2024-03-08T18:11:03;99027.13;;;6.21;100.00
64253;BME280;50592;52.958;-7.470;2024-03-08T18:13:31;99011.88;;;6.25;100.00
64253;BME280;50592;52.958;-7.470;2024-03-08T18:16:09;99007.91;;;6.20;100.00
64253;BME280;50592;52.958;-7.470;2024-03-08T18:18:37;99002.28;;;6.15;100.00
64253;BME280;50592;52.958;-7.470;2024-03-08T18:21:09;99006.34;;;6.10;100.00
64253;BME280;50592;52.958;-7.470;2024-03-08T18:23:35;99006.34;;;6.10;100.00
64253;BME280;50592;52.958;-7.470;2024-03-08T18:26:04;99004.38;;;6.12;100.00
64253;BME280;50592;52.958;-7.470;2024-03-08T18:28:33;99007.22;;;6.18;100.00
64253;BME280;50592;52.958;-7.470;2024-03-08T18:31:42;99002.44;;;6.14;100.00
64253;BME280;50592;52.958;-7.470;2024-03-08T18:34:14;98999.66;;;6.15;100.00
64253;BME280;50592;52.958;-7.470;2024-03-08T18:36:43;99001.19;;;6.18;100.00
64253;BME280;50592;52.958;-7.470;2024-03-08T18:39:10;98993.59;;;6.15;100.00
64253;BME280;50592;52.958;-7.470;2024-03-08T18:41:44;98999.28;;;6.10;100.00
64253;BME280;50592;52.958;-7.470;2024-03-08T18:44:29;98987.69;;;6.13;100.00
64253;BME280;50592;52.958;-7.470;2024-03-08T18:47:21;98989.03;;;5.99;100.00
64253;BME280;50592;52.958;-7.470;2024-03-08T18:49:52;98982.72;;;5.91;100.00
64253;BME280;50592;52.958;-7.470;2024-03-08T18:52:55;98976.56;;;6.01;100.00
64253;BME280;50592;52.958;-7.470;2024-03-08T18:55:40;98987.19;;;5.99;100.00
64253;BME280;50592;52.958;-7.470;2024-03-08T18:58:32;98990.19;;;5.86;100.00
64253;BME280;50592;52.958;-7.470;2024-03-08T19:01:15;98983.16;;;5.87;100.00
64253;BME280;50592;52.958;-7.470;2024-03-08T19:08:55;98994.53;;;5.77;100.00
64253;BME280;50592;52.958;-7.470;2024-03-08T19:11:26;98988.69;;;5.83;100.00
64253;BME280;50592;52.958;-7.470;2024-03-08T19:30:14;98991.88;;;6.24;100.00
64253;BME280;50592;52.958;-7.470;2024-03-08T19:54:33;98994.91;;;6.01;100.00
64253;BME280;50592;52.958;-7.470;2024-03-08T19:58:21;98992.06;;;5.76;100.00
64253;BME280;50592;52.958;-7.470;2024-03-08T20:29:15;98970.31;;;4.63;100.00
64253;BME280;50592;52.958;-7.470;2024-03-08T20:35:59;98956.53;;;4.61;100.00
64253;BME280;50592;52.958;-7.470;2024-03-08T20:51:50;98953.38;;;4.57;100.00
64253;BME280;50592;52.958;-7.470;2024-03-08T20:54:31;98952.41;;;4.58;100.00
64253;BME280;50592;52.958;-7.470;2024-03-08T20:57:13;98943.72;;;4.57;100.00
64253;BME280;50592;52.958;-7.470;2024-03-08T21:00:01;98934.38;;;4.55;100.00
64253;BME280;50592;52.958;-7.470;2024-03-08T21:02:28;98930.94;;;4.54;100.00
64253;BME280;50592;52.958;-7.470;2024-03-08T21:05:21;98933.81;;;4.61;100.00
64253;BME280;50592;52.958;-7.470;2024-03-08T21:07:52;98924.97;;;4.62;100.00
64253;BME280;50592;52.958;-7.470;2024-03-08T21:10:21;98937.75;;;4.75;100.00
64253;BME280;50592;52.958;-7.470;2024-03-08T21:12:56;98928.53;;;4.71;100.00
64253;BME280;50592;52.958;-7.470;2024-03-08T21:15:23;98921.59;;;4.80;100.00
64253;BME280;50592;52.958;-7.470;2024-03-08T21:17:51;98925.16;;;4.89;100.00
64253;BME280;50592;52.958;-7.470;2024-03-08T21:20:20;98920.72;;;4.89;100.00
64253;BME280;50592;52.958;-7.470;2024-03-08T21:22:49;98916.50;;;4.78;100.00
64253;BME280;50592;52.958;-7.470;2024-03-08T21:25:25;98913.75;;;4.80;100.00
64253;BME280;50592;52.958;-7.470;2024-03-08T21:28:32;98904.56;;;4.76;100.00
64253;BME280;50592;52.958;-7.470;2024-03-08T21:31:04;98901.88;;;4.86;100.00
64253;BME280;50592;52.958;-7.470;2024-03-08T21:33:35;98905.28;;;4.96;100.00
64253;BME280;50592;52.958;-7.470;2024-03-08T21:36:05;98891.31;;;4.77;100.00
64253;BME280;50592;52.958;-7.470;2024-03-08T21:38:38;98899.41;;;4.84;100.00
64253;BME280;50592;52.958;-7.470;2024-03-08T21:41:07;98890.63;;;4.75;100.00
64253;BME280;50592;52.958;-7.470;2024-03-08T21:43:40;98902.63;;;4.78;100.00
64253;BME280;50592;52.958;-7.470;2024-03-08T21:46:58;98892.78;;;4.62;100.00
64253;BME280;50592;52.958;-7.470;2024-03-08T21:49:59;98891.03;;;4.52;100.00
64253;BME280;50592;52.958;-7.470;2024-03-08T21:52:45;98905.63;;;4.45;100.00
64253;BME280;50592;52.958;-7.470;2024-03-08T21:58:06;98901.63;;;4.51;100.00
64253;BME280;50592;52.958;-7.470;2024-03-08T22:00:35;98891.38;;;4.57;100.00
64253;BME280;50592;52.958;-7.470;2024-03-08T22:03:07;98893.72;;;4.61;100.00
64253;BME280;50592;52.958;-7.470;2024-03-08T22:05:48;98884.22;;;4.59;100.00
64253;BME280;50592;52.958;-7.470;2024-03-08T22:08:26;98888.88;;;4.66;100.00
64253;BME280;50592;52.958;-7.470;2024-03-08T22:11:00;98890.34;;;4.78;100.00
64253;BME280;50592;52.958;-7.470;2024-03-08T22:13:29;98877.38;;;4.77;100.00
64253;BME280;50592;52.958;-7.470;2024-03-08T22:15:55;98888.66;;;4.87;100.00
64253;BME280;50592;52.958;-7.470;2024-03-08T22:18:21;98890.16;;;4.90;100.00
64253;BME280;50592;52.958;-7.470;2024-03-08T22:20:54;98887.69;;;4.88;100.00
64253;BME280;50592;52.958;-7.470;2024-03-08T22:23:20;98874.47;;;4.80;100.00
64253;BME280;50592;52.958;-7.470;2024-03-08T22:25:49;98877.19;;;4.88;100.00
64253;BME280;50592;52.958;-7.470;2024-03-08T22:28:15;98877.50;;;4.85;100.00
64253;BME280;50592;52.958;-7.470;2024-03-08T22:30:43;98877.59;;;4.93;100.00
64253;BME280;50592;52.958;-7.470;2024-03-08T22:33:09;98879.09;;;4.96;100.00
64253;BME280;50592;52.958;-7.470;2024-03-08T22:35:36;98873.94;;;5.04;100.00
64253;BME280;50592;52.958;-7.470;2024-03-08T22:38:02;98872.13;;;5.05;100.00
64253;BME280;50592;52.958;-7.470;2024-03-08T22:40:32;98859.03;;;5.05;100.00
64253;BME280;50592;52.958;-7.470;2024-03-08T22:42:58;98854.78;;;5.04;100.00
64253;BME280;50592;52.958;-7.470;2024-03-08T22:45:24;98850.97;;;4.98;100.00
64253;BME280;50592;52.958;-7.470;2024-03-08T22:47:50;98840.94;;;4.93;100.00
64253;BME280;50592;52.958;-7.470;2024-03-08T22:50:16;98842.28;;;4.97;100.00
64253;BME280;50592;52.958;-7.470;2024-03-08T22:52:45;98846.53;;;4.99;100.00
64253;BME280;50592;52.958;-7.470;2024-03-08T22:55:12;98834.47;;;4.88;100.00
64253;BME280;50592;52.958;-7.470;2024-03-08T22:57:38;98843.31;;;4.87;100.00
64253;BME280;50592;52.958;-7.470;2024-03-08T23:00:09;98830.91;;;4.89;100.00
64253;BME280;50592;52.958;-7.470;2024-03-08T23:02:53;98832.84;;;4.87;100.00
64253;BME280;50592;52.958;-7.470;2024-03-08T23:05:20;98839.66;;;4.79;100.00
64253;BME280;50592;52.958;-7.470;2024-03-08T23:07:48;98826.56;;;4.79;100.00
64253;BME280;50592;52.958;-7.470;2024-03-08T23:10:15;98825.00;;;4.87;100.00
64253;BME280;50592;52.958;-7.470;2024-03-08T23:12:42;98834.69;;;4.76;100.00
64253;BME280;50592;52.958;-7.470;2024-03-08T23:15:10;98819.38;;;4.81;100.00
64253;BME280;50592;52.958;-7.470;2024-03-08T23:17:40;98828.06;;;4.82;100.00
64253;BME280;50592;52.958;-7.470;2024-03-08T23:20:06;98826.75;;;4.68;100.00
64253;BME280;50592;52.958;-7.470;2024-03-08T23:22:44;98820.88;;;4.56;100.00
64253;BME280;50592;52.958;-7.470;2024-03-08T23:25:19;98824.44;;;4.65;100.00
64253;BME280;50592;52.958;-7.470;2024-03-08T23:27:53;98822.41;;;4.58;100.00
64253;BME280;50592;52.958;-7.470;2024-03-08T23:30:20;98818.69;;;4.51;100.00
64253;BME280;50592;52.958;-7.470;2024-03-08T23:32:49;98817.22;;;4.49;100.00
64253;BME280;50592;52.958;-7.470;2024-03-08T23:35:32;98815.53;;;4.47;100.00
64253;BME280;50592;52.958;-7.470;2024-03-08T23:38:06;98816.47;;;4.56;100.00
64253;BME280;50592;52.958;-7.470;2024-03-08T23:44:48;98815.69;;;4.74;100.00
64253;BME280;50592;52.958;-7.470;2024-03-08T23:47:17;98801.19;;;4.80;100.00
64253;BME280;50592;52.958;-7.470;2024-03-08T23:49:44;98808.25;;;4.79;100.00
64253;BME280;50592;52.958;-7.470;2024-03-08T23:52:10;98804.50;;;4.82;100.00
64253;BME280;50592;52.958;-7.470;2024-03-08T23:54:36;98794.47;;;4.77;100.00
